createdAt,value
2018-09-17T00:00:39.694Z,13.72
2018-09-17T00:01:39.689Z,13.72
2018-09-17T00:02:39.687Z,13.71
2018-09-17T00:03:40.004Z,13.67
2018-09-17T00:04:39.681Z,13.62
2018-09-17T00:05:39.679Z,13.60
2018-09-17T00:06:39.676Z,13.68
2018-09-17T00:07:39.680Z,13.75
2018-09-17T00:08:39.670Z,13.67
2018-09-17T00:09:39.668Z,13.71
2018-09-17T00:10:39.669Z,13.62
2018-09-17T00:11:39.665Z,13.68
2018-09-17T00:12:39.659Z,13.68
2018-09-17T00:13:39.657Z,13.56
2018-09-17T00:14:39.658Z,13.62
2018-09-17T00:15:39.652Z,13.65
2018-09-17T00:16:39.648Z,13.59
2018-09-17T00:17:39.651Z,13.59
2018-09-17T00:18:39.646Z,13.54
2018-09-17T00:19:39.643Z,13.50
2018-09-17T00:20:39.636Z,13.52
2018-09-17T00:21:39.636Z,13.53
2018-09-17T00:22:39.634Z,13.44
2018-09-17T00:23:39.630Z,13.50
2018-09-17T00:24:39.626Z,13.46
2018-09-17T00:25:39.626Z,13.39
2018-09-17T00:26:39.621Z,13.47
2018-09-17T00:27:39.618Z,13.47
2018-09-17T00:28:39.614Z,13.49
2018-09-17T00:29:39.619Z,13.46
2018-09-17T00:30:39.610Z,13.44
2018-09-17T00:31:39.606Z,13.41
2018-09-17T00:32:39.606Z,13.41
2018-09-17T00:33:39.601Z,13.49
2018-09-17T00:34:40.377Z,13.44
2018-09-17T00:35:39.596Z,13.44
2018-09-17T00:36:39.591Z,13.44
2018-09-17T00:37:39.592Z,13.42
2018-09-17T00:38:39.586Z,13.37
2018-09-17T00:39:39.583Z,13.37
2018-09-17T00:40:39.580Z,13.41
2018-09-17T00:41:39.578Z,13.35
2018-09-17T00:42:39.581Z,13.35
2018-09-17T00:43:39.571Z,13.33
2018-09-17T00:44:39.567Z,13.33
2018-09-17T00:45:39.564Z,13.30
2018-09-17T00:46:39.562Z,13.27
2018-09-17T00:47:39.560Z,13.28
2018-09-17T00:48:39.557Z,13.27
2018-09-17T00:49:39.552Z,13.25
2018-09-17T00:50:39.551Z,13.35
2018-09-17T00:51:39.548Z,13.27
2018-09-17T00:52:39.549Z,13.33
2018-09-17T00:53:39.542Z,13.23
2018-09-17T00:54:39.539Z,13.27
2018-09-17T00:55:39.536Z,13.27
2018-09-17T00:56:39.532Z,13.35
2018-09-17T00:57:39.584Z,13.28
2018-09-17T00:58:39.525Z,13.31
2018-09-17T00:59:39.529Z,13.28
2018-09-17T01:00:39.520Z,13.38
2018-09-17T01:01:39.516Z,13.31
2018-09-17T01:02:39.513Z,13.23
2018-09-17T01:03:39.581Z,13.27
2018-09-17T01:04:39.553Z,13.23
2018-09-17T01:05:39.506Z,13.31
2018-09-17T01:06:39.500Z,13.25
2018-09-17T01:07:39.497Z,13.28
2018-09-17T01:08:39.494Z,13.30
2018-09-17T01:09:39.491Z,13.28
2018-09-17T01:10:39.488Z,13.27
2018-09-17T01:11:39.489Z,13.37
2018-09-17T01:12:39.481Z,13.33
2018-09-17T01:13:39.482Z,13.31
2018-09-17T01:14:39.489Z,13.38
2018-09-17T01:15:39.473Z,13.28
2018-09-17T01:16:39.469Z,13.38
2018-09-17T01:17:39.468Z,13.25
2018-09-17T01:18:39.462Z,13.25
2018-09-17T01:19:39.460Z,13.23
2018-09-17T01:20:39.456Z,13.25
2018-09-17T01:21:39.453Z,13.20
2018-09-17T01:22:39.450Z,13.22
2018-09-17T01:23:39.448Z,13.22
2018-09-17T01:24:39.443Z,13.18
2018-09-17T01:25:39.440Z,13.19
2018-09-17T01:26:39.437Z,13.22
2018-09-17T01:27:39.435Z,13.19
2018-09-17T01:28:39.432Z,13.20
2018-09-17T01:29:39.427Z,13.20
2018-09-17T01:30:39.484Z,13.20
2018-09-17T01:31:39.468Z,13.22
2018-09-17T01:32:39.418Z,13.16
2018-09-17T01:33:39.422Z,13.20
2018-09-17T01:34:39.420Z,13.20
2018-09-17T01:35:39.410Z,13.25
2018-09-17T01:36:39.407Z,13.19
2018-09-17T01:37:39.406Z,13.19
2018-09-17T01:38:39.400Z,13.19
2018-09-17T01:39:39.397Z,13.15
2018-09-17T01:40:39.393Z,13.19
2018-09-17T01:41:39.397Z,13.16
2018-09-17T01:42:39.387Z,13.16
2018-09-17T01:43:39.386Z,13.09
2018-09-17T01:44:39.381Z,13.03
2018-09-17T01:45:39.377Z,13.12
2018-09-17T01:46:39.374Z,13.16
2018-09-17T01:47:39.372Z,13.01
2018-09-17T01:48:39.370Z,13.11
2018-09-17T01:49:39.365Z,12.98
2018-09-17T01:50:39.362Z,13.01
2018-09-17T01:51:39.359Z,13.03
2018-09-17T01:52:39.355Z,13.04
2018-09-17T01:53:39.353Z,13.01
2018-09-17T01:54:39.350Z,13.03
2018-09-17T01:55:39.347Z,13.08
2018-09-17T01:56:39.343Z,13.03
2018-09-17T01:57:39.340Z,13.04
2018-09-17T01:58:39.337Z,13.05
2018-09-17T01:59:39.337Z,13.12
2018-09-17T02:00:39.330Z,13.05
2018-09-17T02:01:39.328Z,13.01
2018-09-17T02:02:39.331Z,13.05
2018-09-17T02:03:39.322Z,12.98
2018-09-17T02:04:39.316Z,13.11
2018-09-17T02:05:39.338Z,13.08
2018-09-17T02:06:39.511Z,13.11
2018-09-17T02:07:39.308Z,12.97
2018-09-17T02:08:39.383Z,13.00
2018-09-17T02:09:39.304Z,12.97
2018-09-17T02:10:39.299Z,13.01
2018-09-17T02:11:39.335Z,12.95
2018-09-17T02:12:39.298Z,13.03
2018-09-17T02:13:39.290Z,13.01
2018-09-17T02:14:39.298Z,12.98
2018-09-17T02:15:39.283Z,13.00
2018-09-17T02:16:39.281Z,12.95
2018-09-17T02:17:39.278Z,12.95
2018-09-17T02:18:39.272Z,12.98
2018-09-17T02:19:39.270Z,12.98
2018-09-17T02:20:39.266Z,12.97
2018-09-17T02:21:39.263Z,12.94
2018-09-17T02:22:39.262Z,12.97
2018-09-17T02:23:39.257Z,12.97
2018-09-17T02:24:39.253Z,12.97
2018-09-17T02:25:39.250Z,12.87
2018-09-17T02:26:39.247Z,12.93
2018-09-17T02:27:39.246Z,12.95
2018-09-17T02:28:39.240Z,12.93
2018-09-17T02:29:39.237Z,12.94
2018-09-17T02:30:39.257Z,12.93
2018-09-17T02:31:39.231Z,12.91
2018-09-17T02:32:39.227Z,12.87
2018-09-17T02:33:39.231Z,12.85
2018-09-17T02:34:39.221Z,12.80
2018-09-17T02:35:39.219Z,12.83
2018-09-17T02:36:39.219Z,12.80
2018-09-17T02:37:39.914Z,12.80
2018-09-17T02:38:39.209Z,12.79
2018-09-17T02:39:39.204Z,12.79
2018-09-17T02:40:39.200Z,12.72
2018-09-17T02:41:39.198Z,12.86
2018-09-17T02:42:39.194Z,12.76
2018-09-17T02:43:39.191Z,12.75
2018-09-17T02:44:39.187Z,12.70
2018-09-17T02:45:39.185Z,12.72
2018-09-17T02:46:39.185Z,12.72
2018-09-17T02:47:39.177Z,12.68
2018-09-17T02:48:39.173Z,12.70
2018-09-17T02:49:39.172Z,12.68
2018-09-17T02:50:39.169Z,12.72
2018-09-17T02:51:39.163Z,12.73
2018-09-17T02:52:39.159Z,12.62
2018-09-17T02:53:39.245Z,12.68
2018-09-17T02:54:39.155Z,12.62
2018-09-17T02:55:39.151Z,12.62
2018-09-17T02:56:39.145Z,12.62
2018-09-17T02:57:39.142Z,12.60
2018-09-17T02:58:39.140Z,12.65
2018-09-17T02:59:39.139Z,12.65
2018-09-17T03:00:39.132Z,12.73
2018-09-17T03:01:39.128Z,12.60
2018-09-17T03:02:39.126Z,12.62
2018-09-17T03:03:39.148Z,12.62
2018-09-17T03:04:39.120Z,12.62
2018-09-17T03:05:39.115Z,12.61
2018-09-17T03:06:39.119Z,12.61
2018-09-17T03:07:39.110Z,12.62
2018-09-17T03:08:39.107Z,12.60
2018-09-17T03:09:39.101Z,12.67
2018-09-17T03:10:39.104Z,12.54
2018-09-17T03:11:39.096Z,12.47
2018-09-17T03:12:39.090Z,12.49
2018-09-17T03:13:39.090Z,12.57
2018-09-17T03:14:39.088Z,12.46
2018-09-17T03:15:39.081Z,12.47
2018-09-17T03:16:39.077Z,12.49
2018-09-17T03:17:39.075Z,12.45
2018-09-17T03:18:39.079Z,12.50
2018-09-17T03:19:39.072Z,12.35
2018-09-17T03:20:39.073Z,12.43
2018-09-17T03:21:39.061Z,12.46
2018-09-17T03:22:39.057Z,12.47
2018-09-17T03:23:39.054Z,12.45
2018-09-17T03:24:39.116Z,12.43
2018-09-17T03:25:39.046Z,12.47
2018-09-17T03:26:39.042Z,12.42
2018-09-17T03:27:39.040Z,12.36
2018-09-17T03:28:39.034Z,12.35
2018-09-17T03:29:39.038Z,12.42
2018-09-17T03:30:39.028Z,12.35
2018-09-17T03:31:39.025Z,12.36
2018-09-17T03:32:39.021Z,12.36
2018-09-17T03:33:39.025Z,12.32
2018-09-17T03:34:39.021Z,12.37
2018-09-17T03:35:39.011Z,12.27
2018-09-17T03:36:39.006Z,12.32
2018-09-17T03:37:39.001Z,12.28
2018-09-17T03:38:39.000Z,12.25
2018-09-17T03:39:38.996Z,12.24
2018-09-17T03:40:38.992Z,12.25
2018-09-17T03:41:38.987Z,12.31
2018-09-17T03:42:38.983Z,12.29
2018-09-17T03:43:38.978Z,12.27
2018-09-17T03:44:38.977Z,12.32
2018-09-17T03:45:38.973Z,12.29
2018-09-17T03:46:38.991Z,12.21
2018-09-17T03:47:38.963Z,12.24
2018-09-17T03:48:38.960Z,12.20
2018-09-17T03:49:38.960Z,12.20
2018-09-17T03:50:38.952Z,12.31
2018-09-17T03:51:38.949Z,12.18
2018-09-17T03:52:38.945Z,12.18
2018-09-17T03:53:38.942Z,12.20
2018-09-17T03:54:38.936Z,12.13
2018-09-17T03:55:38.934Z,12.21
2018-09-17T03:56:38.931Z,12.20
2018-09-17T03:57:38.925Z,12.27
2018-09-17T03:58:38.923Z,12.21
2018-09-17T03:59:38.927Z,12.22
2018-09-17T04:00:38.912Z,12.24
2018-09-17T04:01:38.908Z,12.21
2018-09-17T04:02:38.909Z,12.10
2018-09-17T04:03:38.904Z,12.18
2018-09-17T04:04:38.900Z,12.20
2018-09-17T04:05:38.895Z,12.21
2018-09-17T04:06:38.892Z,12.21
2018-09-17T04:07:38.888Z,12.20
2018-09-17T04:08:38.883Z,12.20
2018-09-17T04:09:39.076Z,12.21
2018-09-17T04:10:38.873Z,12.18
2018-09-17T04:11:38.871Z,12.21
2018-09-17T04:12:38.866Z,12.18
2018-09-17T04:13:38.862Z,12.18
2018-09-17T04:14:38.857Z,12.18
2018-09-17T04:15:38.856Z,12.21
2018-09-17T04:16:38.855Z,12.24
2018-09-17T04:17:38.848Z,12.25
2018-09-17T04:18:38.850Z,12.27
2018-09-17T04:19:38.842Z,12.31
2018-09-17T04:20:38.837Z,12.29
2018-09-17T04:21:38.835Z,12.32
2018-09-17T04:22:38.829Z,12.32
2018-09-17T04:23:38.827Z,12.31
2018-09-17T04:24:38.820Z,12.40
2018-09-17T04:25:38.816Z,12.40
2018-09-17T04:26:38.811Z,12.46
2018-09-17T04:27:38.807Z,12.47
2018-09-17T04:28:38.804Z,12.49
2018-09-17T04:29:38.803Z,12.43
2018-09-17T04:30:38.798Z,12.47
2018-09-17T04:31:38.801Z,12.45
2018-09-17T04:32:38.790Z,12.43
2018-09-17T04:33:38.785Z,12.46
2018-09-17T04:34:38.782Z,12.46
2018-09-17T04:35:38.778Z,12.57
2018-09-17T04:36:38.774Z,12.57
2018-09-17T04:37:38.774Z,12.50
2018-09-17T04:38:38.766Z,12.57
2018-09-17T04:39:38.772Z,12.53
2018-09-17T04:40:39.451Z,12.54
2018-09-17T04:41:38.761Z,12.60
2018-09-17T04:42:38.752Z,12.62
2018-09-17T04:43:38.748Z,12.62
2018-09-17T04:44:38.743Z,12.64
2018-09-17T04:45:38.742Z,12.58
2018-09-17T04:46:38.736Z,12.61
2018-09-17T04:47:38.734Z,12.61
2018-09-17T04:48:38.728Z,12.73
2018-09-17T04:49:38.726Z,12.60
2018-09-17T04:50:38.721Z,12.70
2018-09-17T04:51:38.721Z,12.72
2018-09-17T04:52:38.714Z,12.70
2018-09-17T04:53:38.710Z,12.65
2018-09-17T04:54:38.707Z,12.62
2018-09-17T04:55:38.703Z,12.60
2018-09-17T04:56:38.700Z,12.61
2018-09-17T04:57:38.696Z,12.65
2018-09-17T04:58:38.691Z,12.54
2018-09-17T04:59:38.692Z,12.60
2018-09-17T05:00:38.685Z,12.61
2018-09-17T05:01:38.687Z,12.60
2018-09-17T05:02:38.677Z,12.57
2018-09-17T05:03:38.675Z,12.61
2018-09-17T05:04:38.669Z,12.65
2018-09-17T05:05:38.669Z,12.61
2018-09-17T05:06:38.662Z,12.57
2018-09-17T05:07:38.660Z,12.64
2018-09-17T05:08:38.654Z,12.64
2018-09-17T05:09:38.651Z,12.60
2018-09-17T05:10:38.649Z,12.64
2018-09-17T05:11:38.647Z,12.64
2018-09-17T05:12:38.640Z,12.57
2018-09-17T05:13:38.638Z,12.50
2018-09-17T05:14:38.633Z,12.54
2018-09-17T05:15:38.631Z,12.46
2018-09-17T05:16:38.624Z,12.50
2018-09-17T05:17:38.620Z,12.47
2018-09-17T05:18:38.619Z,12.53
2018-09-17T05:19:38.617Z,12.49
2018-09-17T05:20:38.641Z,12.50
2018-09-17T05:21:38.608Z,12.54
2018-09-17T05:22:38.605Z,12.46
2018-09-17T05:23:38.601Z,12.47
2018-09-17T05:24:38.597Z,12.49
2018-09-17T05:25:38.598Z,12.46
2018-09-17T05:26:38.607Z,12.45
2018-09-17T05:27:38.585Z,12.46
2018-09-17T05:28:38.584Z,12.42
2018-09-17T05:29:38.577Z,12.47
2018-09-17T05:30:38.575Z,12.39
2018-09-17T05:31:38.569Z,12.39
2018-09-17T05:32:38.570Z,12.45
2018-09-17T05:33:38.563Z,12.47
2018-09-17T05:34:38.559Z,12.47
2018-09-17T05:35:38.556Z,12.45
2018-09-17T05:36:38.550Z,12.45
2018-09-17T05:37:38.547Z,12.45
2018-09-17T05:38:38.551Z,12.54
2018-09-17T05:39:38.546Z,12.46
2018-09-17T05:40:38.548Z,12.49
2018-09-17T05:41:38.537Z,12.46
2018-09-17T05:42:38.530Z,12.55
2018-09-17T05:43:38.582Z,12.45
2018-09-17T05:44:38.523Z,12.60
2018-09-17T05:45:38.543Z,12.60
2018-09-17T05:46:38.514Z,12.46
2018-09-17T05:47:38.536Z,12.47
2018-09-17T05:48:38.513Z,12.61
2018-09-17T05:49:38.506Z,12.61
2018-09-17T05:50:38.500Z,12.62
2018-09-17T05:51:38.498Z,12.65
2018-09-17T05:52:38.492Z,12.64
2018-09-17T05:53:38.525Z,12.68
2018-09-17T05:54:38.486Z,12.73
2018-09-17T05:55:38.482Z,12.73
2018-09-17T05:56:38.484Z,12.72
2018-09-17T05:57:38.476Z,12.72
2018-09-17T05:58:38.470Z,12.73
2018-09-17T05:59:38.515Z,12.85
2018-09-17T06:00:38.463Z,12.83
2018-09-17T06:01:38.480Z,12.90
2018-09-17T06:02:38.488Z,12.91
2018-09-17T06:03:38.454Z,12.97
2018-09-17T06:04:38.448Z,13.00
2018-09-17T06:05:38.515Z,13.03
2018-09-17T06:06:38.441Z,13.05
2018-09-17T06:07:38.463Z,13.05
2018-09-17T06:08:38.434Z,13.03
2018-09-17T06:09:38.480Z,13.15
2018-09-17T06:10:38.438Z,13.27
2018-09-17T06:11:38.451Z,13.13
2018-09-17T06:12:38.625Z,13.19
2018-09-17T06:13:38.416Z,13.16
2018-09-17T06:14:38.469Z,13.22
2018-09-17T06:15:38.413Z,13.23
2018-09-17T06:16:38.405Z,13.22
2018-09-17T06:17:38.403Z,13.28
2018-09-17T06:18:38.397Z,13.30
2018-09-17T06:19:38.396Z,13.27
2018-09-17T06:20:38.394Z,13.18
2018-09-17T06:21:38.395Z,13.25
2018-09-17T06:22:38.386Z,13.25
2018-09-17T06:23:38.384Z,13.22
2018-09-17T06:24:38.382Z,13.25
2018-09-17T06:25:38.377Z,13.20
2018-09-17T06:26:38.449Z,13.22
2018-09-17T06:27:38.375Z,13.23
2018-09-17T06:28:38.383Z,13.27
2018-09-17T06:29:38.359Z,13.22
2018-09-17T06:30:38.359Z,13.25
2018-09-17T06:31:38.353Z,13.27
2018-09-17T06:32:38.353Z,13.41
2018-09-17T06:33:38.385Z,13.31
2018-09-17T06:34:38.344Z,13.33
2018-09-17T06:35:38.341Z,13.46
2018-09-17T06:36:38.338Z,13.50
2018-09-17T06:37:38.404Z,13.60
2018-09-17T06:38:38.341Z,13.56
2018-09-17T06:39:38.327Z,13.63
2018-09-17T06:40:38.325Z,13.59
2018-09-17T06:41:38.416Z,13.60
2018-09-17T06:42:38.318Z,13.53
2018-09-17T06:43:38.996Z,13.59
2018-09-17T06:44:38.335Z,13.65
2018-09-17T06:45:38.307Z,13.54
2018-09-17T06:46:38.304Z,13.59
2018-09-17T06:47:38.304Z,13.67
2018-09-17T06:48:38.308Z,13.68
2018-09-17T06:49:38.295Z,13.70
2018-09-17T06:50:38.290Z,13.71
2018-09-17T06:51:38.293Z,13.74
2018-09-17T06:52:38.286Z,13.74
2018-09-17T06:53:38.307Z,13.83
2018-09-17T06:54:38.281Z,13.79
2018-09-17T06:55:38.278Z,13.81
2018-09-17T06:56:38.271Z,13.92
2018-09-17T06:57:38.268Z,13.90
2018-09-17T06:58:38.267Z,13.96
2018-09-17T06:59:38.264Z,13.95
2018-09-17T07:00:38.260Z,13.92
2018-09-17T07:01:38.270Z,13.99
2018-09-17T07:02:38.293Z,14.00
2018-09-17T07:03:38.250Z,14.07
2018-09-17T07:04:38.247Z,14.08
2018-09-17T07:05:38.246Z,14.07
2018-09-17T07:06:38.242Z,14.08
2018-09-17T07:07:38.245Z,14.08
2018-09-17T07:08:38.235Z,14.12
2018-09-17T07:09:38.234Z,14.12
2018-09-17T07:10:38.230Z,14.20
2018-09-17T07:11:38.230Z,14.05
2018-09-17T07:12:38.224Z,14.23
2018-09-17T07:13:38.225Z,14.33
2018-09-17T07:14:38.219Z,14.30
2018-09-17T07:15:38.226Z,14.35
2018-09-17T07:16:38.214Z,14.32
2018-09-17T07:17:38.221Z,14.41
2018-09-17T07:18:38.208Z,14.47
2018-09-17T07:19:38.218Z,14.50
2018-09-17T07:20:38.207Z,14.50
2018-09-17T07:21:38.199Z,14.50
2018-09-17T07:22:38.199Z,14.51
2018-09-17T07:23:38.195Z,14.54
2018-09-17T07:24:38.191Z,14.53
2018-09-17T07:25:38.188Z,14.59
2018-09-17T07:26:38.186Z,14.60
2018-09-17T07:27:38.188Z,14.68
2018-09-17T07:28:38.181Z,14.70
2018-09-17T07:29:38.180Z,14.78
2018-09-17T07:30:38.181Z,14.79
2018-09-17T07:31:38.173Z,14.77
2018-09-17T07:32:38.170Z,14.77
2018-09-17T07:33:38.168Z,14.78
2018-09-17T07:34:38.165Z,14.81
2018-09-17T07:35:38.164Z,14.94
2018-09-17T07:36:38.218Z,14.82
2018-09-17T07:37:38.158Z,14.89
2018-09-17T07:38:38.159Z,14.92
2018-09-17T07:39:38.154Z,15.03
2018-09-17T07:40:38.152Z,15.04
2018-09-17T07:41:38.149Z,15.03
2018-09-17T07:42:38.158Z,14.97
2018-09-17T07:43:38.143Z,15.09
2018-09-17T07:44:38.144Z,15.09
2018-09-17T07:45:38.139Z,15.17
2018-09-17T07:46:38.136Z,15.28
2018-09-17T07:47:38.144Z,15.22
2018-09-17T07:48:38.131Z,15.31
2018-09-17T07:49:38.130Z,15.31
2018-09-17T07:50:38.129Z,15.22
2018-09-17T07:51:38.125Z,15.24
2018-09-17T07:52:38.121Z,15.33
2018-09-17T07:53:38.123Z,15.40
2018-09-17T07:54:38.123Z,15.43
2018-09-17T07:55:38.116Z,15.55
2018-09-17T07:56:38.117Z,15.59
2018-09-17T07:57:38.111Z,15.62
2018-09-17T07:58:38.109Z,15.68
2018-09-17T07:59:38.107Z,15.67
2018-09-17T08:00:38.106Z,15.72
2018-09-17T08:01:38.101Z,15.73
2018-09-17T08:02:38.099Z,15.77
2018-09-17T08:03:38.098Z,15.84
2018-09-17T08:04:38.098Z,15.92
2018-09-17T08:05:38.147Z,15.88
2018-09-17T08:06:38.094Z,15.90
2018-09-17T08:07:38.095Z,15.98
2018-09-17T08:08:38.088Z,16.01
2018-09-17T08:09:38.088Z,16.04
2018-09-17T08:10:38.093Z,16.12
2018-09-17T08:11:38.085Z,16.15
2018-09-17T08:12:38.081Z,16.13
2018-09-17T08:13:38.080Z,16.20
2018-09-17T08:14:38.077Z,16.31
2018-09-17T08:15:38.128Z,16.43
2018-09-17T08:16:38.075Z,16.32
2018-09-17T08:17:38.086Z,16.43
2018-09-17T08:18:38.072Z,16.47
2018-09-17T08:19:38.120Z,16.53
2018-09-17T08:20:38.073Z,16.58
2018-09-17T08:21:38.065Z,16.66
2018-09-17T08:22:38.067Z,16.66
2018-09-17T08:23:38.064Z,16.69
2018-09-17T08:24:38.095Z,16.86
2018-09-17T08:25:38.108Z,16.96
2018-09-17T08:26:38.060Z,17.05
2018-09-17T08:27:38.057Z,17.01
2018-09-17T08:28:38.057Z,17.05
2018-09-17T08:29:38.054Z,17.11
2018-09-17T08:30:38.066Z,17.27
2018-09-17T08:31:38.065Z,17.31
2018-09-17T08:32:38.051Z,17.39
2018-09-17T08:33:38.050Z,17.48
2018-09-17T08:34:38.048Z,17.64
2018-09-17T08:35:38.048Z,17.57
2018-09-17T08:36:38.047Z,17.64
2018-09-17T08:37:38.048Z,17.71
2018-09-17T08:38:38.051Z,17.80
2018-09-17T08:39:38.043Z,17.86
2018-09-17T08:40:38.043Z,17.98
2018-09-17T08:41:38.041Z,17.98
2018-09-17T08:42:38.042Z,18.13
2018-09-17T08:43:38.039Z,18.28
2018-09-17T08:44:38.041Z,18.23
2018-09-17T08:45:38.303Z,18.29
2018-09-17T08:46:38.624Z,18.37
2018-09-17T08:47:38.043Z,18.43
2018-09-17T08:48:38.059Z,18.53
2018-09-17T08:49:38.059Z,18.62
2018-09-17T08:50:38.291Z,18.56
2018-09-17T08:51:38.040Z,18.73
2018-09-17T08:52:38.056Z,18.81
2018-09-17T08:53:39.356Z,18.89
2018-09-17T08:54:38.043Z,18.86
2018-09-17T08:55:38.036Z,18.95
2018-09-17T08:56:38.032Z,18.99
2018-09-17T08:57:38.034Z,18.96
2018-09-17T08:58:38.038Z,18.92
2018-09-17T08:59:38.037Z,19.04
2018-09-17T09:00:38.033Z,19.02
2018-09-17T09:01:38.033Z,19.11
2018-09-17T09:02:38.092Z,19.00
2018-09-17T09:03:38.047Z,19.14
2018-09-17T09:04:38.033Z,19.11
2018-09-17T09:05:38.038Z,19.15
2018-09-17T09:06:38.032Z,19.18
2018-09-17T09:07:38.035Z,19.18
2018-09-17T09:08:38.033Z,19.19
2018-09-17T09:09:38.042Z,19.29
2018-09-17T09:10:38.037Z,19.22
2018-09-17T09:11:38.034Z,19.36
2018-09-17T09:12:38.034Z,19.41
2018-09-17T09:13:38.035Z,19.48
2018-09-17T09:14:38.041Z,19.55
2018-09-17T09:15:38.037Z,19.58
2018-09-17T09:16:38.041Z,19.63
2018-09-17T09:17:38.892Z,19.66
2018-09-17T09:18:38.043Z,19.70
2018-09-17T09:19:38.082Z,19.81
2018-09-17T09:20:38.045Z,19.82
2018-09-17T09:21:38.037Z,19.84
2018-09-17T09:22:38.039Z,19.91
2018-09-17T09:23:38.049Z,19.92
2018-09-17T09:24:38.041Z,20.03
2018-09-17T09:25:38.042Z,20.06
2018-09-17T09:26:38.042Z,20.06
2018-09-17T09:27:38.045Z,20.06
2018-09-17T09:28:38.041Z,20.10
2018-09-17T09:29:38.043Z,20.09
2018-09-17T09:30:38.043Z,20.11
2018-09-17T09:31:38.047Z,20.18
2018-09-17T09:32:38.047Z,20.16
2018-09-17T09:33:38.051Z,20.16
2018-09-17T09:34:38.051Z,20.21
2018-09-17T09:35:38.049Z,20.37
2018-09-17T09:36:38.051Z,20.40
2018-09-17T09:37:38.051Z,20.51
2018-09-17T09:38:38.051Z,20.48
2018-09-17T09:39:38.054Z,20.47
2018-09-17T09:40:38.059Z,20.51
2018-09-17T09:41:38.057Z,20.62
2018-09-17T09:42:38.061Z,20.60
2018-09-17T09:43:38.058Z,20.70
2018-09-17T09:44:38.061Z,20.78
2018-09-17T09:45:38.059Z,20.80
2018-09-17T09:46:38.060Z,20.84
2018-09-17T09:47:38.062Z,20.88
2018-09-17T09:48:38.063Z,20.87
2018-09-17T09:49:38.066Z,20.93
2018-09-17T09:50:38.069Z,21.02
2018-09-17T09:51:38.067Z,21.03
2018-09-17T09:52:38.129Z,21.12
2018-09-17T09:53:38.069Z,21.07
2018-09-17T09:54:38.072Z,21.21
2018-09-17T09:55:38.083Z,21.15
2018-09-17T09:56:38.083Z,21.27
2018-09-17T09:57:38.075Z,21.35
2018-09-17T09:58:38.077Z,21.40
2018-09-17T09:59:38.126Z,21.43
2018-09-17T10:00:38.081Z,21.55
2018-09-17T10:01:38.115Z,21.61
2018-09-17T10:02:38.090Z,21.66
2018-09-17T10:03:38.108Z,21.75
2018-09-17T10:04:38.088Z,21.80
2018-09-17T10:05:38.088Z,21.85
2018-09-17T10:06:38.103Z,21.89
2018-09-17T10:07:38.095Z,22.04
2018-09-17T10:08:38.095Z,22.10
2018-09-17T10:09:38.104Z,22.11
2018-09-17T10:10:38.098Z,22.18
2018-09-17T10:11:38.137Z,22.28
2018-09-17T10:12:38.101Z,22.30
2018-09-17T10:13:38.104Z,22.30
2018-09-17T10:14:38.107Z,22.41
2018-09-17T10:15:38.113Z,22.51
2018-09-17T10:16:38.110Z,22.50
2018-09-17T10:17:38.113Z,22.62
2018-09-17T10:18:38.113Z,22.65
2018-09-17T10:19:38.120Z,22.63
2018-09-17T10:20:38.119Z,22.68
2018-09-17T10:21:38.125Z,22.80
2018-09-17T10:22:38.153Z,22.83
2018-09-17T10:23:38.125Z,22.75
2018-09-17T10:24:38.132Z,22.76
2018-09-17T10:25:38.129Z,22.78
2018-09-17T10:26:38.133Z,22.80
2018-09-17T10:27:38.178Z,22.93
2018-09-17T10:28:38.136Z,22.90
2018-09-17T10:29:38.140Z,22.94
2018-09-17T10:30:38.146Z,22.96
2018-09-17T10:31:38.152Z,23.05
2018-09-17T10:32:38.150Z,23.02
2018-09-17T10:33:38.276Z,23.09
2018-09-17T10:34:38.176Z,23.13
2018-09-17T10:35:38.158Z,23.17
2018-09-17T10:36:38.719Z,23.24
2018-09-17T10:37:39.184Z,23.34
2018-09-17T10:38:38.240Z,23.36
2018-09-17T10:39:38.471Z,23.34
2018-09-17T10:40:38.243Z,23.37
2018-09-17T10:41:38.171Z,23.34
2018-09-17T10:42:38.345Z,23.34
2018-09-17T10:43:38.244Z,23.47
2018-09-17T10:44:39.617Z,23.48
2018-09-17T10:45:39.142Z,23.51
2018-09-17T10:46:39.187Z,23.54
2018-09-17T10:47:39.249Z,23.58
2018-09-17T10:48:39.182Z,23.51
2018-09-17T10:49:38.503Z,23.63
2018-09-17T10:50:38.410Z,23.55
2018-09-17T10:51:38.567Z,23.68
2018-09-17T10:52:38.388Z,23.63
2018-09-17T10:53:39.198Z,23.66
2018-09-17T10:54:39.175Z,23.68
2018-09-17T10:55:39.163Z,23.69
2018-09-17T10:56:38.353Z,23.76
2018-09-17T10:57:39.130Z,23.74
2018-09-17T10:58:38.620Z,23.71
2018-09-17T10:59:38.558Z,23.73
2018-09-17T11:00:38.260Z,23.76
2018-09-17T11:01:39.125Z,23.71
2018-09-17T11:02:39.134Z,23.71
2018-09-17T11:03:39.312Z,23.77
2018-09-17T11:04:38.686Z,23.83
2018-09-17T11:05:39.176Z,23.88
2018-09-17T11:06:39.287Z,23.91
2018-09-17T11:07:39.368Z,23.91
2018-09-17T11:08:38.505Z,23.92
2018-09-17T11:09:40.299Z,23.92
2018-09-17T11:10:38.274Z,23.96
2018-09-17T11:11:38.734Z,23.93
2018-09-17T11:12:38.460Z,24.03
2018-09-17T11:13:38.477Z,24.06
2018-09-17T11:14:38.575Z,24.17
2018-09-17T11:15:38.759Z,24.21
2018-09-17T11:16:38.531Z,24.17
2018-09-17T11:17:38.398Z,24.16
2018-09-17T11:18:38.287Z,24.20
2018-09-17T11:19:38.284Z,24.20
2018-09-17T11:20:38.544Z,24.17
2018-09-17T11:21:38.284Z,24.06
2018-09-17T11:22:38.301Z,24.16
2018-09-17T11:23:38.289Z,24.13
2018-09-17T11:24:38.291Z,24.24
2018-09-17T11:25:38.297Z,24.28
2018-09-17T11:26:38.303Z,24.20
2018-09-17T11:27:38.321Z,24.32
2018-09-17T11:28:38.303Z,24.28
2018-09-17T11:29:38.308Z,24.42
2018-09-17T11:30:38.309Z,24.38
2018-09-17T11:31:38.304Z,24.43
2018-09-17T11:32:38.315Z,24.48
2018-09-17T11:33:38.325Z,24.53
2018-09-17T11:34:38.369Z,24.65
2018-09-17T11:35:38.315Z,24.60
2018-09-17T11:36:38.329Z,24.70
2018-09-17T11:37:38.334Z,24.76
2018-09-17T11:38:38.355Z,24.77
2018-09-17T11:39:38.342Z,24.85
2018-09-17T11:40:38.341Z,24.91
2018-09-17T11:41:38.346Z,24.91
2018-09-17T11:42:38.351Z,25.01
2018-09-17T11:43:38.352Z,24.99
2018-09-17T11:44:38.357Z,25.16
2018-09-17T11:45:38.359Z,25.17
2018-09-17T11:46:38.382Z,25.16
2018-09-17T11:47:38.366Z,25.16
2018-09-17T11:48:38.369Z,25.22
2018-09-17T11:49:38.381Z,25.25
2018-09-17T11:50:38.391Z,25.26
2018-09-17T11:51:38.887Z,25.21
2018-09-17T11:52:38.383Z,25.33
2018-09-17T11:53:38.441Z,25.23
2018-09-17T11:54:38.391Z,25.28
2018-09-17T11:55:38.401Z,25.32
2018-09-17T11:56:38.401Z,25.32
2018-09-17T11:57:38.403Z,25.32
2018-09-17T11:58:38.405Z,25.41
2018-09-17T11:59:38.409Z,25.50
2018-09-17T12:00:38.414Z,25.54
2018-09-17T12:01:38.435Z,25.53
2018-09-17T12:02:38.426Z,25.66
2018-09-17T12:03:38.529Z,25.62
2018-09-17T12:04:38.427Z,25.69
2018-09-17T12:05:38.433Z,25.68
2018-09-17T12:06:38.435Z,25.72
2018-09-17T12:07:38.439Z,25.75
2018-09-17T12:08:38.441Z,25.66
2018-09-17T12:09:38.451Z,25.69
2018-09-17T12:10:38.451Z,25.66
2018-09-17T12:11:38.454Z,25.69
2018-09-17T12:12:38.458Z,25.75
2018-09-17T12:13:38.461Z,25.81
2018-09-17T12:14:38.464Z,25.83
2018-09-17T12:15:38.467Z,25.90
2018-09-17T12:16:39.291Z,25.88
2018-09-17T12:17:38.475Z,26.00
2018-09-17T12:18:38.479Z,25.99
2018-09-17T12:19:38.485Z,25.99
2018-09-17T12:20:38.485Z,26.02
2018-09-17T12:21:38.551Z,26.03
2018-09-17T12:22:39.318Z,26.05
2018-09-17T12:23:38.498Z,25.98
2018-09-17T12:24:38.501Z,26.00
2018-09-17T12:25:38.504Z,25.99
2018-09-17T12:26:38.509Z,25.96
2018-09-17T12:27:38.517Z,26.02
2018-09-17T12:28:38.528Z,25.96
2018-09-17T12:29:38.518Z,26.00
2018-09-17T12:30:38.586Z,26.02
2018-09-17T12:31:38.528Z,25.96
2018-09-17T12:32:38.533Z,26.09
2018-09-17T12:33:38.556Z,26.03
2018-09-17T12:34:38.538Z,26.10
2018-09-17T12:35:38.553Z,26.16
2018-09-17T12:36:38.548Z,26.16
2018-09-17T12:37:38.561Z,26.19
2018-09-17T12:38:38.553Z,26.16
2018-09-17T12:39:38.566Z,26.18
2018-09-17T12:40:38.561Z,26.21
2018-09-17T12:41:38.566Z,26.28
2018-09-17T12:42:38.571Z,26.19
2018-09-17T12:43:38.573Z,26.19
2018-09-17T12:44:38.576Z,26.22
2018-09-17T12:45:38.590Z,26.19
2018-09-17T12:46:38.585Z,26.25
2018-09-17T12:47:38.592Z,26.29
2018-09-17T12:48:38.595Z,26.33
2018-09-17T12:49:38.597Z,26.18
2018-09-17T12:50:38.624Z,26.22
2018-09-17T12:51:38.612Z,26.19
2018-09-17T12:52:38.608Z,26.21